Time;durP1;ratioP1;P1;durP2;ratioP2;P2;SDS_P1;SDS_P2;PMS_P1;PMS_P2;Temp;Humidity;BMP_temperature;BMP_pressure;BME280_temperature;BME280_humidity;BME280_pressure;Samples;Min_cycle;Max_cycle;Signal;HPM_P1;HPM_P2
2023/10/17 00:02:27;;;;;;;;;;;;;;;10.42;nan;102194.44;4977891;28;20235;-90
2023/10/17 00:04:53;;;;;;;;;;;;;;;10.42;nan;102191.75;4977700;28;19929;-90
2023/10/17 00:07:20;;;;;;;;;;;;;;;10.42;nan;102189.88;4976763;28;19922;-93
2023/10/17 00:09:48;;;;;;;;;;;;;;;10.42;nan;102194.44;4974966;28;19925;-91
2023/10/17 00:14:57;;;;;;;;;;;;;;;10.39;nan;102192.16;4971961;28;20056;-91
2023/10/17 00:17:23;;;;;;;;;;;;;;;10.36;nan;102190.72;4973766;28;19922;-90
2023/10/17 00:19:52;;;;;;;;;;;;;;;10.33;nan;102190.31;4975273;28;19922;-91
2023/10/17 00:22:23;;;;;;;;;;;;;;;10.30;nan;102188.88;4970013;28;19954;-92
2023/10/17 00:24:57;;;;;;;;;;;;;;;10.24;nan;102192.41;4971486;28;19929;-91
2023/10/17 00:27:24;;;;;;;;;;;;;;;10.18;nan;102188.69;4977066;28;19926;-91
2023/10/17 00:29:56;;;;;;;;;;;;;;;10.16;nan;102182.72;4976993;28;19957;-90
2023/10/17 00:32:23;;;;;;;;;;;;;;;10.18;nan;102186.00;4973328;28;20682;-91
2023/10/17 00:34:51;;;;;;;;;;;;;;;10.19;nan;102184.13;4973385;28;20021;-90
2023/10/17 00:37:23;;;;;;;;;;;;;;;10.15;nan;102189.09;4971543;28;19926;-90
2023/10/17 00:39:59;;;;;;;;;;;;;;;10.13;nan;102193.84;4976288;28;19921;-90
2023/10/17 00:42:29;;;;;;;;;;;;;;;10.13;nan;102191.16;4977789;28;19921;-90
2023/10/17 00:45:17;;;;;;;;;;;;;;;10.12;nan;102183.34;4978306;28;19952;-90
2023/10/17 00:47:42;;;;;;;;;;;;;;;10.09;nan;102178.41;4984218;28;20371;-90
2023/10/17 00:50:12;;;;;;;;;;;;;;;10.06;nan;102177.00;4972261;28;19925;-91
2023/10/17 00:52:38;;;;;;;;;;;;;;;10.02;nan;102173.06;4974885;28;19949;-90
2023/10/17 00:55:10;;;;;;;;;;;;;;;9.98;nan;102166.47;4974226;28;19977;-90
2023/10/17 00:57:37;;;;;;;;;;;;;;;9.93;nan;102175.16;4972961;28;19918;-90
2023/10/17 01:03:08;;;;;;;;;;;;;;;9.90;nan;102180.09;4977586;28;19930;-90
2023/10/17 01:05:46;;;;;;;;;;;;;;;9.87;nan;102178.63;4976447;28;19930;-92
2023/10/17 01:08:15;;;;;;;;;;;;;;;9.82;nan;102181.13;4971860;28;19952;-91
2023/10/17 01:10:44;;;;;;;;;;;;;;;9.79;nan;102184.22;4958153;28;19922;-90
2023/10/17 01:13:09;;;;;;;;;;;;;;;9.77;nan;102180.94;4971266;28;20241;-90
2023/10/17 01:15:38;;;;;;;;;;;;;;;9.75;nan;102188.34;4970605;28;19995;-90
2023/10/17 01:18:04;;;;;;;;;;;;;;;9.71;nan;102187.13;4972870;28;19930;-91
2023/10/17 01:20:31;;;;;;;;;;;;;;;9.71;nan;102183.63;4968076;28;19930;-91
2023/10/17 01:23:00;;;;;;;;;;;;;;;9.71;nan;102181.78;4974272;28;19918;-90
2023/10/17 01:25:30;;;;;;;;;;;;;;;9.69;nan;102175.78;4973082;28;20004;-90
2023/10/17 01:27:57;;;;;;;;;;;;;;;9.68;nan;102177.63;4978903;28;19980;-89
2023/10/17 01:30:23;;;;;;;;;;;;;;;9.67;nan;102172.50;4976009;28;19918;-89
2023/10/17 01:32:51;;;;;;;;;;;;;;;9.62;nan;102173.13;4974740;28;19985;-89
2023/10/17 01:35:20;;;;;;;;;;;;;;;9.60;nan;102171.69;4971923;28;19930;-89
2023/10/17 01:37:48;;;;;;;;;;;;;;;9.57;nan;102174.78;4974156;28;19925;-90
2023/10/17 01:40:27;;;;;;;;;;;;;;;9.56;nan;102165.09;4975044;28;19926;-90
2023/10/17 01:42:59;;;;;;;;;;;;;;;9.52;nan;102171.91;4974924;28;19922;-89
2023/10/17 01:45:27;;;;;;;;;;;;;;;9.52;nan;102174.59;4974134;28;19953;-89
2023/10/17 01:47:54;;;;;;;;;;;;;;;9.50;nan;102180.09;4976576;28;19929;-89
2023/10/17 01:50:24;;;;;;;;;;;;;;;9.47;nan;102180.53;4974839;28;20050;-89
2023/10/17 01:52:54;;;;;;;;;;;;;;;9.45;nan;102179.09;4979929;28;19918;-90
2023/10/17 01:55:27;;;;;;;;;;;;;;;9.45;nan;102176.41;4981044;28;19932;-89
2023/10/17 01:57:59;;;;;;;;;;;;;;;9.43;nan;102170.44;4970562;28;19926;-89
2023/10/17 02:02:55;;;;;;;;;;;;;;;9.39;nan;102176.22;4974851;28;19929;-90
2023/10/17 02:05:22;;;;;;;;;;;;;;;9.41;nan;102180.53;4973933;28;19949;-90
2023/10/17 02:07:52;;;;;;;;;;;;;;;9.39;nan;102165.50;4975601;28;19929;-89
2023/10/17 02:10:29;;;;;;;;;;;;;;;9.39;nan;102173.53;4971107;28;19922;-89
2023/10/17 02:13:09;;;;;;;;;;;;;;;9.41;nan;102173.34;4973114;28;19956;-89
2023/10/17 02:15:38;;;;;;;;;;;;;;;9.42;nan;102172.31;4975484;28;20309;-90
2023/10/17 02:18:12;;;;;;;;;;;;;;;9.42;nan;102174.16;4973829;28;19922;-89
2023/10/17 02:20:47;;;;;;;;;;;;;;;9.44;nan;102172.91;4974621;28;19946;-90
2023/10/17 02:23:25;;;;;;;;;;;;;;;9.41;nan;102170.66;4971458;28;20160;-89
2023/10/17 02:26:00;;;;;;;;;;;;;;;9.35;nan;102171.50;4974694;28;19922;-89
2023/10/17 02:28:26;;;;;;;;;;;;;;;9.29;nan;102173.09;4972902;28;20398;-89
2023/10/17 02:30:52;;;;;;;;;;;;;;;9.26;nan;102173.53;4973252;28;19985;-89
2023/10/17 02:33:20;;;;;;;;;;;;;;;9.27;nan;102171.66;4972191;28;20076;-89
2023/10/17 02:38:43;;;;;;;;;;;;;;;9.16;nan;102169.63;4972151;28;20047;-90
2023/10/17 02:41:13;;;;;;;;;;;;;;;9.07;nan;102177.81;4972897;28;19926;-89
2023/10/17 02:43:40;;;;;;;;;;;;;;;9.06;nan;102173.50;4970926;28;20396;-90
2023/10/17 02:46:18;;;;;;;;;;;;;;;9.09;nan;102172.25;4975192;28;19951;-89
2023/10/17 02:48:55;;;;;;;;;;;;;;;9.11;nan;102166.72;4973344;28;19918;-89
2023/10/17 02:51:33;;;;;;;;;;;;;;;9.10;nan;102165.88;4974594;28;19953;-89
2023/10/17 02:54:05;;;;;;;;;;;;;;;9.11;nan;102175.56;4973336;28;20067;-88
2023/10/17 02:56:38;;;;;;;;;;;;;;;9.10;nan;102168.56;4973535;28;19932;-89
2023/10/17 02:59:04;;;;;;;;;;;;;;;9.10;nan;102168.56;4970698;28;19930;-89
2023/10/17 03:01:36;;;;;;;;;;;;;;;9.09;nan;102173.09;4970048;28;19929;-90
2023/10/17 03:04:09;;;;;;;;;;;;;;;9.09;nan;102174.94;4965586;28;20413;-89
2023/10/17 03:06:40;;;;;;;;;;;;;;;9.08;nan;102171.44;4973925;28;20361;-88
2023/10/17 03:11:57;;;;;;;;;;;;;;;9.05;nan;102184.41;4967808;28;19961;-89
2023/10/17 03:17:15;;;;;;;;;;;;;;;9.03;nan;102178.44;4973095;28;19942;-89
2023/10/17 03:19:49;;;;;;;;;;;;;;;9.00;nan;102173.50;4973168;28;19921;-89
2023/10/17 03:22:16;;;;;;;;;;;;;;;8.97;nan;102174.69;4969619;28;19925;-89
2023/10/17 03:24:45;;;;;;;;;;;;;;;8.98;nan;102170.22;4970041;28;19996;-90
2023/10/17 03:28:00;;;;;;;;;;;;;;;8.99;nan;102169.19;4969794;28;19937;-88
2023/10/17 03:30:05;;;;;;;;;;;;;;;9.00;nan;102173.50;4972113;28;19922;-90
2023/10/17 03:32:44;;;;;;;;;;;;;;;9.01;nan;102178.63;4969835;28;20464;-88
2023/10/17 03:35:21;;;;;;;;;;;;;;;9.01;nan;102175.97;4967977;28;19985;-89
2023/10/17 03:37:49;;;;;;;;;;;;;;;8.97;nan;102184.56;4970168;28;20386;-89
2023/10/17 03:40:19;;;;;;;;;;;;;;;8.93;nan;102184.16;4974569;28;19917;-89
2023/10/17 03:42:53;;;;;;;;;;;;;;;8.92;nan;102187.03;4975819;28;19918;-88
2023/10/17 03:45:34;;;;;;;;;;;;;;;8.90;nan;102194.44;4972540;28;20401;-89
2023/10/17 03:48:13;;;;;;;;;;;;;;;8.89;nan;102190.13;4974701;28;19918;-88
2023/10/17 03:53:36;;;;;;;;;;;;;;;8.90;nan;102199.78;4980161;28;19929;-89
2023/10/17 03:56:04;;;;;;;;;;;;;;;8.88;nan;102207.19;4978302;28;19926;-89
2023/10/17 03:58:49;;;;;;;;;;;;;;;8.86;nan;102201.22;4974988;28;19949;-88
2023/10/17 04:01:23;;;;;;;;;;;;;;;8.87;nan;102194.84;4974666;28;20098;-88
2023/10/17 04:04:02;;;;;;;;;;;;;;;8.87;nan;102195.66;4975908;28;19993;-89
2023/10/17 04:06:35;;;;;;;;;;;;;;;8.88;nan;102191.16;4974582;28;19965;-88
2023/10/17 04:09:17;;;;;;;;;;;;;;;8.84;nan;102187.22;4973817;28;19957;-88
2023/10/17 04:11:53;;;;;;;;;;;;;;;8.83;nan;102190.94;4976950;28;19925;-88
2023/10/17 04:14:33;;;;;;;;;;;;;;;8.82;nan;102183.94;4976334;28;20401;-89
2023/10/17 04:17:04;;;;;;;;;;;;;;;8.81;nan;102183.13;4973010;28;19993;-89
2023/10/17 04:19:32;;;;;;;;;;;;;;;8.76;nan;102189.03;4973482;28;19929;-88
2023/10/17 04:24:36;;;;;;;;;;;;;;;8.65;nan;102181.63;4974287;28;20379;-88
2023/10/17 04:27:18;;;;;;;;;;;;;;;8.65;nan;102184.28;4976003;28;19922;-88
2023/10/17 04:29:51;;;;;;;;;;;;;;;8.69;nan;102182.03;4974921;28;20005;-89
2023/10/17 04:32:19;;;;;;;;;;;;;;;8.71;nan;102185.34;4975518;28;19926;-89
2023/10/17 04:34:47;;;;;;;;;;;;;;;8.76;nan;102188.22;4974178;28;19926;-89
2023/10/17 04:37:31;;;;;;;;;;;;;;;8.79;nan;102188.63;4972437;28;20342;-89
2023/10/17 04:42:56;;;;;;;;;;;;;;;8.85;nan;102183.53;4973602;28;19932;-88
2023/10/17 04:45:33;;;;;;;;;;;;;;;8.86;nan;102187.84;4977183;28;20666;-89
2023/10/17 04:48:11;;;;;;;;;;;;;;;8.87;nan;102189.50;4973705;28;19926;-88
2023/10/17 04:50:56;;;;;;;;;;;;;;;8.88;nan;102191.16;4973236;28;19932;-89
2023/10/17 04:53:35;;;;;;;;;;;;;;;8.88;nan;102186.63;4970417;28;20174;-89
2023/10/17 04:56:15;;;;;;;;;;;;;;;8.91;nan;102185.38;4976696;28;19949;-90
2023/10/17 04:58:56;;;;;;;;;;;;;;;8.88;nan;102191.16;4977259;28;19957;-89
2023/10/17 05:02:14;;;;;;;;;;;;;;;8.86;nan;102194.03;4971757;28;19922;-89
2023/10/17 05:07:16;;;;;;;;;;;;;;;8.83;nan;102197.09;4972417;28;19940;-89
2023/10/17 06:18:26;;;;;;;;;;;;;;;8.87;nan;102249.13;4972407;28;19976;-89
2023/10/17 06:21:18;;;;;;;;;;;;;;;8.98;nan;102245.88;4971460;28;20059;-90
2023/10/17 06:24:06;;;;;;;;;;;;;;;9.08;nan;102248.97;4973334;28;19954;-90
2023/10/17 06:26:47;;;;;;;;;;;;;;;9.18;nan;102247.78;4973078;28;19921;-91
2023/10/17 06:34:33;;;;;;;;;;;;;;;9.35;nan;102257.91;4980518;28;19988;-90
2023/10/17 06:37:19;;;;;;;;;;;;;;;9.40;nan;102259.97;4973947;28;19922;-91
2023/10/17 06:39:49;;;;;;;;;;;;;;;9.44;nan;102255.03;4977793;28;19918;-91
2023/10/17 06:42:39;;;;;;;;;;;;;;;9.49;nan;102255.22;4971302;28;19980;-91
2023/10/17 06:45:09;;;;;;;;;;;;;;;9.53;nan;102256.50;4972314;28;19918;-91
2023/10/17 06:47:47;;;;;;;;;;;;;;;9.57;nan;102261.22;4974147;28;19929;-90
2023/10/17 06:51:28;;;;;;;;;;;;;;;9.61;nan;102264.31;4975912;28;19969;-91
2023/10/17 06:53:11;;;;;;;;;;;;;;;9.61;nan;102258.97;4974689;28;20449;-90
2023/10/17 06:55:47;;;;;;;;;;;;;;;9.64;nan;102259.38;4970878;28;19946;-90
2023/10/17 06:58:21;;;;;;;;;;;;;;;9.74;nan;102266.19;4971583;28;19972;-90
2023/10/17 07:00:50;;;;;;;;;;;;;;;9.83;nan;102264.94;4979627;28;19922;-90
2023/10/17 07:03:25;;;;;;;;;;;;;;;9.94;nan;102262.47;4972947;28;19932;-91
2023/10/17 07:06:03;;;;;;;;;;;;;;;10.06;nan;102267.22;4976107;28;20013;-92
2023/10/17 07:08:36;;;;;;;;;;;;;;;10.14;nan;102261.63;4979131;28;20008;-90
2023/10/17 07:16:38;;;;;;;;;;;;;;;10.42;nan;102267.59;4971269;28;19933;-90
2023/10/17 07:19:10;;;;;;;;;;;;;;;10.51;nan;102262.81;4977973;28;20374;-90
2023/10/17 07:22:24;;;;;;;;;;;;;;;10.62;nan;102261.34;4972913;28;20289;-91
2023/10/17 07:24:42;;;;;;;;;;;;;;;10.74;nan;102273.03;4980148;28;19927;-90
2023/10/17 07:27:12;;;;;;;;;;;;;;;10.88;nan;102264.75;4972600;28;19922;-90
2023/10/17 07:29:38;;;;;;;;;;;;;;;11.05;nan;102267.75;4979994;28;19965;-90
2023/10/17 07:32:17;;;;;;;;;;;;;;;11.22;nan;102259.22;4975768;28;19965;-90
2023/10/17 07:34:46;;;;;;;;;;;;;;;11.44;nan;102258.66;4978378;28;19925;-90
2023/10/17 07:37:23;;;;;;;;;;;;;;;11.66;nan;102253.72;4974317;28;19922;-91
2023/10/17 07:42:46;;;;;;;;;;;;;;;12.01;nan;102255.97;4978252;28;19928;-91
2023/10/17 07:45:21;;;;;;;;;;;;;;;12.12;nan;102254.41;4974009;28;19926;-91
2023/10/17 07:47:51;;;;;;;;;;;;;;;12.20;nan;102265.69;4975691;28;19969;-90
2023/10/17 07:50:18;;;;;;;;;;;;;;;12.31;nan;102264.16;4978829;28;19922;-91
2023/10/17 07:52:46;;;;;;;;;;;;;;;12.44;nan;102263.19;4981360;28;19928;-92
2023/10/17 07:58:17;;;;;;;;;;;;;;;12.73;nan;102261.59;4980328;28;20052;-91
2023/10/17 08:00:43;;;;;;;;;;;;;;;12.78;nan;102262.59;4974258;28;19950;-92
2023/10/17 08:03:15;;;;;;;;;;;;;;;12.79;nan;102261.53;4969717;28;19973;-91
2023/10/17 08:08:33;;;;;;;;;;;;;;;12.80;nan;102259.69;4982010;28;20005;-92
2023/10/17 08:10:58;;;;;;;;;;;;;;;12.81;nan;102261.31;4979002;28;19929;-91
2023/10/17 08:13:24;;;;;;;;;;;;;;;12.84;nan;102266.25;4979293;28;19922;-91
2023/10/17 08:15:53;;;;;;;;;;;;;;;12.90;nan;102260.75;4973346;28;19988;-91
2023/10/17 08:18:22;;;;;;;;;;;;;;;12.97;nan;102264.22;4982824;28;20379;-91
2023/10/17 08:23:20;;;;;;;;;;;;;;;13.20;nan;102268.06;4975518;28;20327;-90
2023/10/17 08:25:56;;;;;;;;;;;;;;;13.40;nan;102268.59;4976055;28;19918;-90
2023/10/17 08:28:33;;;;;;;;;;;;;;;13.53;nan;102256.81;4982952;28;20015;-90
2023/10/17 08:31:35;;;;;;;;;;;;;;;13.54;nan;102264.66;4980057;28;19937;-91
2023/10/17 08:39:26;;;;;;;;;;;;;;;13.90;nan;102274.44;4982836;28;19925;-91
2023/10/17 08:42:05;;;;;;;;;;;;;;;14.02;nan;102270.94;4981279;28;19933;-91
2023/10/17 08:44:34;;;;;;;;;;;;;;;14.19;nan;102269.19;4978704;28;19949;-90
2023/10/17 08:47:01;;;;;;;;;;;;;;;14.36;nan;102275.50;4982074;28;19917;-92
2023/10/17 08:49:27;;;;;;;;;;;;;;;14.46;nan;102277.63;4983178;28;19932;-91
2023/10/17 08:51:58;;;;;;;;;;;;;;;14.63;nan;102267.75;4979346;28;20004;-92
2023/10/17 08:54:29;;;;;;;;;;;;;;;14.89;nan;102277.16;4978562;28;19922;-92
2023/10/17 08:56:54;;;;;;;;;;;;;;;15.12;nan;102278.97;4979833;28;19949;-91
2023/10/17 08:59:59;;;;;;;;;;;;;;;15.35;nan;102265.38;4979583;28;19969;-91
2023/10/17 09:04:52;;;;;;;;;;;;;;;15.66;nan;102274.03;4984224;28;19965;-92
2023/10/17 09:07:42;;;;;;;;;;;;;;;15.70;nan;102272.47;4964306;28;19937;-92
2023/10/17 09:10:15;;;;;;;;;;;;;;;15.73;nan;102271.97;4978697;28;20009;-92
2023/10/17 09:15:48;;;;;;;;;;;;;;;15.79;nan;102270.16;4973445;28;19929;-92
2023/10/17 09:18:17;;;;;;;;;;;;;;;15.81;nan;102263.47;4988110;28;20128;-91
2023/10/17 09:20:42;;;;;;;;;;;;;;;15.91;nan;102268.22;4983985;28;19918;-92
2023/10/17 09:23:24;;;;;;;;;;;;;;;16.01;nan;102268.38;4987296;28;19932;-93
2023/10/17 09:26:10;;;;;;;;;;;;;;;16.18;nan;102265.66;4976920;28;20020;-93
2023/10/17 09:28:40;;;;;;;;;;;;;;;16.26;nan;102262.50;4983755;28;19980;-94
2023/10/17 09:31:20;;;;;;;;;;;;;;;16.30;nan;102260.94;4980912;28;19917;-92
2023/10/17 09:33:56;;;;;;;;;;;;;;;16.37;nan;102256.19;4990873;28;19918;-94
2023/10/17 09:36:22;;;;;;;;;;;;;;;16.43;nan;102265.19;4986635;28;20295;-94
2023/10/17 09:38:48;;;;;;;;;;;;;;;16.43;nan;102255.19;4987617;28;20362;-92
2023/10/17 09:41:17;;;;;;;;;;;;;;;16.52;nan;102264.50;4984424;28;19929;-92
2023/10/17 09:44:01;;;;;;;;;;;;;;;16.70;nan;102259.91;4980032;28;19926;-92
2023/10/17 09:46:29;;;;;;;;;;;;;;;16.85;nan;102262.75;4978571;28;19918;-94
2023/10/17 09:49:00;;;;;;;;;;;;;;;17.02;nan;102260.78;4977645;28;19933;-93
2023/10/17 09:51:33;;;;;;;;;;;;;;;17.21;nan;102259.34;4981314;28;19976;-93
2023/10/17 09:54:10;;;;;;;;;;;;;;;17.43;nan;102263.91;4985763;28;19948;-92
2023/10/17 09:56:41;;;;;;;;;;;;;;;17.59;nan;102256.72;4975948;28;20057;-91
2023/10/17 09:59:11;;;;;;;;;;;;;;;17.76;nan;102255.53;4979954;28;20302;-94
2023/10/17 10:01:39;;;;;;;;;;;;;;;17.95;nan;102245.09;4987798;28;19922;-93
2023/10/17 10:04:05;;;;;;;;;;;;;;;18.27;nan;102246.94;4978186;28;20013;-93
2023/10/17 10:06:34;;;;;;;;;;;;;;;18.57;nan;102235.41;4985077;28;19925;-92
2023/10/17 10:09:06;;;;;;;;;;;;;;;18.83;nan;102236.31;4958692;28;20378;-92
2023/10/17 10:11:49;;;;;;;;;;;;;;;18.94;nan;102238.00;4983677;28;20276;-91
2023/10/17 10:14:16;;;;;;;;;;;;;;;19.04;nan;102235.31;4983661;28;19952;-94
2023/10/17 10:16:51;;;;;;;;;;;;;;;19.02;nan;102232.84;4980882;28;19945;-91
2023/10/17 10:19:17;;;;;;;;;;;;;;;19.04;nan;102229.06;4983153;28;19926;-91
2023/10/17 10:21:52;;;;;;;;;;;;;;;19.17;nan;102221.19;4978436;28;19922;-93
2023/10/17 10:24:26;;;;;;;;;;;;;;;19.27;nan;102228.56;4983264;28;20012;-92
2023/10/17 10:27:10;;;;;;;;;;;;;;;19.22;nan;102221.22;4977207;28;19925;-92
2023/10/17 10:29:37;;;;;;;;;;;;;;;19.09;nan;102229.06;4981436;28;20394;-94
2023/10/17 10:32:25;;;;;;;;;;;;;;;18.91;nan;102220.34;4979060;28;19922;-91
2023/10/17 10:34:52;;;;;;;;;;;;;;;18.86;nan;102222.25;4980922;28;19975;-91
2023/10/17 10:37:20;;;;;;;;;;;;;;;18.84;nan;102227.91;4984261;28;19926;-92
2023/10/17 10:40:16;;;;;;;;;;;;;;;18.82;nan;102218.41;4985429;28;20369;-92
2023/10/17 10:43:02;;;;;;;;;;;;;;;18.73;nan;102212.69;4976922;28;20579;-92
2023/10/17 10:45:47;;;;;;;;;;;;;;;18.64;nan;102215.09;4978481;28;19972;-92
2023/10/17 10:48:14;;;;;;;;;;;;;;;18.70;nan;102211.34;4982373;28;20374;-92
2023/10/17 10:50:49;;;;;;;;;;;;;;;18.66;nan;102212.09;4973347;28;20373;-93
2023/10/17 10:53:28;;;;;;;;;;;;;;;18.88;nan;102207.31;4982602;28;19929;-93
2023/10/17 10:56:15;;;;;;;;;;;;;;;19.16;nan;102205.97;4981956;28;19930;-93
2023/10/17 10:58:42;;;;;;;;;;;;;;;19.30;nan;102200.84;4976233;28;19929;-93
2023/10/17 11:01:10;;;;;;;;;;;;;;;19.53;nan;102204.91;4977669;28;19984;-93
2023/10/17 11:03:43;;;;;;;;;;;;;;;19.67;nan;102203.28;4979653;28;19933;-91
2023/10/17 11:06:09;;;;;;;;;;;;;;;19.91;nan;102192.63;4973330;28;19937;-90
2023/10/17 11:08:36;;;;;;;;;;;;;;;20.12;nan;102187.97;4980778;28;20382;-92
2023/10/17 11:11:03;;;;;;;;;;;;;;;20.32;nan;102182.44;4978324;28;19929;-94
2023/10/17 11:13:40;;;;;;;;;;;;;;;20.52;nan;102184.28;4985144;28;19929;-92
2023/10/17 11:16:06;;;;;;;;;;;;;;;20.71;nan;102188.00;4971825;28;20017;-92
2023/10/17 11:18:35;;;;;;;;;;;;;;;20.77;nan;102189.59;4974798;28;19922;-91
2023/10/17 11:21:05;;;;;;;;;;;;;;;20.82;nan;102183.28;4980764;28;20318;-93
2023/10/17 11:23:33;;;;;;;;;;;;;;;20.84;nan;102181.13;4978121;28;19918;-92
2023/10/17 11:26:02;;;;;;;;;;;;;;;20.87;nan;102180.56;4978453;28;20020;-91
2023/10/17 11:28:41;;;;;;;;;;;;;;;21.05;nan;102168.97;4983056;28;19925;-92
2023/10/17 11:31:21;;;;;;;;;;;;;;;21.29;nan;102171.81;4980683;28;19925;-92
2023/10/17 11:34:12;;;;;;;;;;;;;;;21.51;nan;102165.88;4977949;28;19918;-93
2023/10/17 11:36:45;;;;;;;;;;;;;;;21.68;nan;102163.53;4971581;28;19957;-92
2023/10/17 11:39:10;;;;;;;;;;;;;;;21.81;nan;102159.31;4976848;28;19929;-93
2023/10/17 11:41:46;;;;;;;;;;;;;;;21.89;nan;102152.41;4972803;28;20282;-93
2023/10/17 11:44:13;;;;;;;;;;;;;;;21.90;nan;102145.84;4976421;28;20416;-91
2023/10/17 11:46:38;;;;;;;;;;;;;;;21.95;nan;102138.41;4975597;28;19922;-93
2023/10/17 11:49:20;;;;;;;;;;;;;;;22.06;nan;102141.84;4975312;28;19926;-89
2023/10/17 11:52:05;;;;;;;;;;;;;;;22.23;nan;102134.00;4980553;28;19972;-89
2023/10/17 11:54:31;;;;;;;;;;;;;;;22.41;nan;102137.84;4976308;28;19937;-89
2023/10/17 11:57:12;;;;;;;;;;;;;;;22.53;nan;102140.16;4977875;28;20422;-91
2023/10/17 11:59:43;;;;;;;;;;;;;;;22.36;nan;102140.66;4973513;28;19922;-89
2023/10/17 12:02:14;;;;;;;;;;;;;;;22.32;nan;102147.81;4976677;28;19968;-90
2023/10/17 12:04:41;;;;;;;;;;;;;;;22.28;nan;102146.78;4986473;28;20001;-91
2023/10/17 12:07:07;;;;;;;;;;;;;;;22.33;nan;102140.44;4977760;28;20052;-92
2023/10/17 12:09:33;;;;;;;;;;;;;;;22.46;nan;102135.06;4985694;28;20389;-92
2023/10/17 12:11:59;;;;;;;;;;;;;;;22.53;nan;102140.97;4982551;28;19921;-94
2023/10/17 12:14:24;;;;;;;;;;;;;;;22.58;nan;102129.97;4982257;28;19933;-95
2023/10/17 12:16:53;;;;;;;;;;;;;;;22.60;nan;102130.47;4982407;28;19949;-94
2023/10/17 12:19:40;;;;;;;;;;;;;;;22.37;nan;102123.16;4981793;28;19918;-89
2023/10/17 12:22:09;;;;;;;;;;;;;;;22.51;nan;102121.34;4983396;28;19941;-89
2023/10/17 12:24:36;;;;;;;;;;;;;;;22.59;nan;102119.84;4977160;28;20350;-88
2023/10/17 12:27:33;;;;;;;;;;;;;;;22.53;nan;102113.66;4978960;28;19926;-91
2023/10/17 12:29:59;;;;;;;;;;;;;;;22.52;nan;102122.97;4981653;28;19945;-93
2023/10/17 12:32:25;;;;;;;;;;;;;;;22.35;nan;102114.47;4982375;28;20402;-89
2023/10/17 12:34:57;;;;;;;;;;;;;;;22.22;nan;102110.53;4976576;28;20683;-89
2023/10/17 12:37:23;;;;;;;;;;;;;;;22.21;nan;102097.19;4982114;28;20008;-88
2023/10/17 12:39:50;;;;;;;;;;;;;;;22.19;nan;102096.66;4975275;28;19961;-87
2023/10/17 12:42:17;;;;;;;;;;;;;;;22.31;nan;102094.31;4978229;28;19926;-89
2023/10/17 12:44:46;;;;;;;;;;;;;;;22.45;nan;102095.22;4980758;28;19981;-89
2023/10/17 12:47:12;;;;;;;;;;;;;;;22.46;nan;102096.84;4984125;28;20627;-89
2023/10/17 12:49:39;;;;;;;;;;;;;;;22.26;nan;102094.38;4981828;28;19925;-88
2023/10/17 12:52:07;;;;;;;;;;;;;;;22.27;nan;102094.09;4978177;28;19922;-89
2023/10/17 12:54:32;;;;;;;;;;;;;;;22.45;nan;102099.88;4980632;28;19928;-89
2023/10/17 12:57:06;;;;;;;;;;;;;;;22.62;nan;102094.66;4981193;28;19952;-90
2023/10/17 12:59:34;;;;;;;;;;;;;;;22.72;nan;102094.53;4978577;28;19935;-91
2023/10/17 13:02:02;;;;;;;;;;;;;;;22.73;nan;102095.31;4979527;28;20415;-90
2023/10/17 13:04:28;;;;;;;;;;;;;;;22.67;nan;102097.34;4977975;28;19926;-91
2023/10/17 13:06:54;;;;;;;;;;;;;;;22.52;nan;102095.66;4979497;28;20488;-91
2023/10/17 13:09:22;;;;;;;;;;;;;;;22.27;nan;102090.56;4974081;28;20378;-90
2023/10/17 13:11:58;;;;;;;;;;;;;;;22.09;nan;102085.91;4978774;28;19930;-92
2023/10/17 13:14:25;;;;;;;;;;;;;;;21.96;nan;102092.84;4983856;28;20428;-92
2023/10/17 13:17:11;;;;;;;;;;;;;;;21.97;nan;102084.34;4980178;28;19921;-92
2023/10/17 13:19:42;;;;;;;;;;;;;;;22.04;nan;102084.00;4980976;28;19922;-92
2023/10/17 13:22:16;;;;;;;;;;;;;;;22.11;nan;102086.41;4975975;28;19925;-91
2023/10/17 13:24:45;;;;;;;;;;;;;;;22.03;nan;102083.19;4979067;28;19997;-90
2023/10/17 13:27:11;;;;;;;;;;;;;;;22.02;nan;102076.09;4978864;28;20314;-90
2023/10/17 13:29:36;;;;;;;;;;;;;;;22.23;nan;102076.66;4980883;28;19984;-90
2023/10/17 13:32:07;;;;;;;;;;;;;;;22.39;nan;102085.44;4977753;28;19922;-90
2023/10/17 13:34:34;;;;;;;;;;;;;;;22.50;nan;102086.94;4976809;28;19933;-90
2023/10/17 13:37:04;;;;;;;;;;;;;;;22.66;nan;102082.06;4979325;28;19922;-90
2023/10/17 13:39:31;;;;;;;;;;;;;;;22.54;nan;102082.50;4982617;28;19961;-90
2023/10/17 13:41:56;;;;;;;;;;;;;;;22.43;nan;102072.81;4980097;28;19928;-89
2023/10/17 13:44:30;;;;;;;;;;;;;;;22.50;nan;102075.19;4976355;28;19989;-91
2023/10/17 13:46:56;;;;;;;;;;;;;;;22.64;nan;102073.34;4972997;28;19941;-92
2023/10/17 13:49:22;;;;;;;;;;;;;;;22.49;nan;102074.41;4975849;28;19932;-86
2023/10/17 13:51:48;;;;;;;;;;;;;;;22.24;nan;102074.75;4974765;28;19922;-88
2023/10/17 13:54:17;;;;;;;;;;;;;;;22.12;nan;102077.94;4972567;28;19953;-84
2023/10/17 13:56:43;;;;;;;;;;;;;;;22.09;nan;102070.34;4977001;28;19953;-87
2023/10/17 13:59:09;;;;;;;;;;;;;;;22.06;nan;102070.09;4967840;28;19933;-86
2023/10/17 14:01:42;;;;;;;;;;;;;;;22.01;nan;102074.47;4974973;28;19991;-87
2023/10/17 14:04:11;;;;;;;;;;;;;;;22.02;nan;102075.28;4970809;28;19918;-87
2023/10/17 14:06:59;;;;;;;;;;;;;;;22.06;nan;102076.34;4973187;28;20004;-86
2023/10/17 14:09:29;;;;;;;;;;;;;;;21.97;nan;102062.53;4972900;28;19918;-86
2023/10/17 14:11:58;;;;;;;;;;;;;;;21.88;nan;102064.28;4968728;28;19929;-87
2023/10/17 14:14:35;;;;;;;;;;;;;;;21.81;nan;102072.00;4969453;28;19926;-86
2023/10/17 14:17:02;;;;;;;;;;;;;;;21.75;nan;102073.19;4969881;28;19936;-87
2023/10/17 14:22:20;;;;;;;;;;;;;;;21.63;nan;102070.03;4972272;28;19941;-87
2023/10/17 14:27:21;;;;;;;;;;;;;;;21.53;nan;102072.88;4963325;28;20047;-87
2023/10/17 14:30:06;;;;;;;;;;;;;;;21.40;nan;102068.94;4968664;28;19936;-87
2023/10/17 14:32:33;;;;;;;;;;;;;;;21.33;nan;102069.25;4971833;28;20024;-86
2023/10/17 14:35:09;;;;;;;;;;;;;;;21.32;nan;102066.84;4975045;28;19954;-87
2023/10/17 14:37:35;;;;;;;;;;;;;;;21.31;nan;102071.47;4968184;28;19918;-86
2023/10/17 14:40:01;;;;;;;;;;;;;;;21.17;nan;102070.47;4965072;28;20403;-87
2023/10/17 14:42:32;;;;;;;;;;;;;;;21.03;nan;102069.53;4967829;28;19926;-87
2023/10/17 14:44:59;;;;;;;;;;;;;;;20.92;nan;102073.44;4965706;28;19953;-86
2023/10/17 14:47:26;;;;;;;;;;;;;;;20.84;nan;102066.72;4971376;28;20005;-87
2023/10/17 14:49:52;;;;;;;;;;;;;;;20.78;nan;102062.38;4964677;28;19929;-86
2023/10/17 14:52:18;;;;;;;;;;;;;;;20.68;nan;102063.28;4968973;28;20193;-87
2023/10/17 14:54:46;;;;;;;;;;;;;;;20.65;nan;102065.78;4966726;28;19961;-87
2023/10/17 14:57:18;;;;;;;;;;;;;;;20.60;nan;102061.16;4970849;28;19932;-87
2023/10/17 14:59:54;;;;;;;;;;;;;;;20.59;nan;102059.53;4969716;28;20021;-87
2023/10/17 15:02:21;;;;;;;;;;;;;;;20.61;nan;102057.34;4970467;28;20391;-88
2023/10/17 15:04:52;;;;;;;;;;;;;;;20.61;nan;102057.34;4967001;28;20035;-87
2023/10/17 15:07:19;;;;;;;;;;;;;;;20.56;nan;102054.66;4967866;28;20092;-87
2023/10/17 15:09:46;;;;;;;;;;;;;;;20.41;nan;102052.03;4968116;28;20017;-88
2023/10/17 15:12:12;;;;;;;;;;;;;;;20.31;nan;102050.19;4968097;28;19933;-87
2023/10/17 15:14:40;;;;;;;;;;;;;;;20.25;nan;102053.19;4968639;28;20306;-87
2023/10/17 15:17:12;;;;;;;;;;;;;;;20.21;nan;102052.94;4968811;28;19922;-87
2023/10/17 15:19:42;;;;;;;;;;;;;;;20.22;nan;102049.13;4972625;28;20018;-85
2023/10/17 15:22:08;;;;;;;;;;;;;;;20.26;nan;102049.38;4970562;28;19929;-88
2023/10/17 15:24:33;;;;;;;;;;;;;;;20.27;nan;102049.09;4975944;28;19918;-87
2023/10/17 15:27:09;;;;;;;;;;;;;;;20.29;nan;102051.53;4976972;28;19946;-90
2023/10/17 15:29:39;;;;;;;;;;;;;;;20.30;nan;102055.91;4972672;28;19984;-88
2023/10/17 15:32:07;;;;;;;;;;;;;;;20.24;nan;102055.09;4973479;28;19933;-89
2023/10/17 15:34:38;;;;;;;;;;;;;;;20.18;nan;102062.50;4978104;28;19925;-86
2023/10/17 15:37:13;;;;;;;;;;;;;;;20.16;nan;102051.09;4980821;28;20378;-89
2023/10/17 15:39:44;;;;;;;;;;;;;;;20.12;nan;102055.47;4970808;28;19933;-87
2023/10/17 15:42:15;;;;;;;;;;;;;;;20.09;nan;102056.00;4970811;28;19921;-88